createdAt,value
2022-11-18T00:02:02.903Z,35.03
2022-11-18T00:05:04.685Z,36.75
2022-11-18T00:08:06.371Z,34.58
2022-11-18T00:11:09.324Z,35.93
2022-11-18T00:14:23.325Z,36.90
2022-11-18T00:17:25.315Z,33.65
2022-11-18T00:20:26.934Z,35.60
2022-11-18T00:23:28.813Z,35.05
2022-11-18T00:26:30.404Z,34.87
2022-11-18T00:29:32.024Z,35.13
2022-11-18T00:32:33.619Z,36.00
2022-11-18T00:35:35.230Z,33.40
2022-11-18T00:38:37.014Z,35.72
2022-11-18T00:41:57.221Z,32.80
2022-11-18T00:44:58.805Z,32.40
2022-11-18T00:48:00.432Z,33.55
2022-11-18T00:51:18.762Z,35.97
2022-11-18T00:54:20.523Z,34.08
2022-11-18T00:57:22.186Z,35.33
2022-11-18T01:00:23.798Z,35.83
2022-11-18T01:03:25.775Z,32.85
2022-11-18T01:06:27.427Z,34.78
2022-11-18T01:09:29.134Z,37.72
2022-11-18T01:12:54.084Z,38.33
2022-11-18T01:15:57.421Z,36.00
2022-11-18T01:18:59.121Z,32.08
2022-11-18T01:22:03.677Z,32.33
2022-11-18T01:25:05.422Z,35.47
2022-11-18T01:28:07.092Z,36.53
2022-11-18T01:31:09.526Z,40.20
2022-11-18T01:34:11.175Z,33.53
2022-11-18T01:37:12.883Z,40.33
2022-11-18T01:40:14.781Z,41.03
2022-11-18T01:43:18.120Z,36.83
2022-11-18T01:46:20.680Z,36.38
2022-11-18T01:49:22.290Z,36.60
2022-11-18T01:52:23.896Z,34.70
2022-11-18T01:55:27.481Z,40.25
2022-11-18T01:58:31.370Z,30.87
2022-11-18T02:01:33.058Z,34.58
2022-11-18T02:04:34.720Z,34.72
2022-11-18T02:07:42.203Z,41.70
2022-11-18T02:10:43.945Z,41.97
2022-11-18T02:13:45.544Z,40.97
2022-11-18T02:17:14.004Z,38.70
2022-11-18T02:20:31.321Z,32.03
2022-11-18T02:24:02.927Z,32.35
2022-11-18T02:27:10.641Z,40.63
2022-11-18T02:30:12.865Z,38.08
2022-11-18T02:33:21.009Z,48.35
2022-11-18T02:36:28.792Z,41.90
2022-11-18T02:39:33.869Z,40.92
2022-11-18T02:42:35.579Z,45.73
2022-11-18T02:45:37.450Z,51.35
2022-11-18T02:48:46.133Z,40.35
2022-11-18T02:51:47.736Z,38.40
2022-11-18T02:54:49.369Z,39.40
2022-11-18T02:57:50.997Z,39.80
2022-11-18T03:00:56.491Z,45.70
2022-11-18T03:03:58.445Z,35.00
2022-11-18T03:07:20.701Z,45.78
2022-11-18T03:10:22.380Z,33.10
2022-11-18T03:13:26.670Z,39.55
2022-11-18T03:16:31.940Z,43.90
2022-11-18T03:19:43.603Z,43.33
2022-11-18T03:22:58.134Z,42.28
2022-11-18T03:26:01.885Z,31.73
2022-11-18T03:29:17.979Z,36.50
2022-11-18T03:32:22.524Z,34.85
2022-11-18T03:35:25.614Z,34.03
2022-11-18T03:38:31.764Z,34.95
2022-11-18T03:41:35.645Z,36.07
2022-11-18T03:44:38.498Z,35.03
2022-11-18T03:47:42.103Z,38.97
2022-11-18T03:50:47.606Z,42.25
2022-11-18T03:53:58.248Z,40.27
2022-11-18T03:57:02.266Z,41.35
2022-11-18T04:00:09.177Z,48.90
2022-11-18T04:03:11.137Z,48.58
2022-11-18T04:06:37.244Z,48.92
2022-11-18T04:09:52.101Z,55.23
2022-11-18T04:13:16.541Z,53.97
2022-11-18T04:16:18.173Z,48.53
2022-11-18T04:19:20.304Z,51.97
2022-11-18T04:22:22.420Z,50.42
2022-11-18T04:25:24.580Z,53.07
2022-11-18T04:28:26.320Z,58.47
2022-11-18T04:31:27.941Z,53.70
2022-11-18T04:34:30.949Z,41.72
2022-11-18T04:37:32.646Z,48.05
2022-11-18T04:40:34.287Z,45.43
2022-11-18T04:43:35.947Z,58.20
2022-11-18T04:46:37.520Z,55.22
2022-11-18T04:49:39.120Z,51.42
2022-11-18T04:52:40.800Z,45.95
2022-11-18T04:55:42.410Z,60.70
2022-11-18T04:58:44.037Z,83.07
2022-11-18T05:01:45.744Z,58.15
2022-11-18T05:04:47.924Z,51.47
2022-11-18T05:07:50.690Z,45.85
2022-11-18T05:11:12.237Z,40.67
2022-11-18T05:14:14.228Z,42.90
2022-11-18T05:17:15.848Z,90.25
2022-11-18T05:20:17.484Z,46.83
2022-11-18T05:23:19.138Z,39.97
2022-11-18T05:26:20.765Z,47.47
2022-11-18T05:29:22.462Z,44.35
2022-11-18T05:32:24.104Z,49.00
2022-11-18T05:35:25.699Z,38.67
2022-11-18T05:38:27.353Z,52.93
2022-11-18T05:41:47.620Z,50.47
2022-11-18T05:44:54.651Z,60.22
2022-11-18T05:48:04.646Z,45.38
2022-11-18T05:51:06.491Z,40.35
2022-11-18T05:54:09.070Z,32.60
2022-11-18T05:57:10.682Z,47.80
2022-11-18T06:00:13.060Z,43.72
2022-11-18T06:03:30.259Z,52.80
2022-11-18T06:06:32.463Z,62.10
2022-11-18T06:09:35.896Z,63.57
2022-11-18T06:12:39.760Z,54.90
2022-11-18T06:15:42.267Z,56.03
2022-11-18T06:18:43.914Z,84.85
2022-11-18T06:21:45.931Z,79.40
2022-11-18T06:24:47.512Z,49.40
2022-11-18T06:27:49.289Z,46.40
2022-11-18T06:30:50.971Z,61.85
2022-11-18T06:33:52.720Z,63.75
2022-11-18T06:36:54.428Z,47.60
2022-11-18T06:39:56.087Z,92.57
2022-11-18T06:43:16.038Z,51.42
2022-11-18T06:46:36.344Z,55.30
2022-11-18T06:49:37.977Z,72.28
2022-11-18T06:52:39.597Z,60.30
2022-11-18T06:55:41.259Z,51.65
2022-11-18T06:58:42.996Z,57.33
2022-11-18T07:01:44.605Z,52.83
2022-11-18T07:04:46.314Z,50.73
2022-11-18T07:07:48.128Z,46.37
2022-11-18T07:10:53.589Z,46.53
2022-11-18T07:13:55.313Z,34.30
2022-11-18T07:16:57.021Z,42.60
2022-11-18T07:19:58.748Z,31.77
2022-11-18T07:50:22.461Z,22.75
2022-11-18T07:53:24.197Z,22.52
2022-11-18T07:56:25.857Z,22.02
2022-11-18T07:59:27.524Z,19.42
2022-11-18T08:02:29.165Z,18.77
2022-11-18T08:05:30.804Z,20.67
2022-11-18T08:08:32.509Z,20.33
2022-11-18T08:11:34.337Z,18.08
2022-11-18T08:14:35.994Z,18.47
2022-11-18T08:17:37.756Z,19.15
2022-11-18T08:20:39.389Z,19.52
2022-11-18T08:23:42.564Z,18.42
2022-11-18T08:26:44.414Z,17.40
2022-11-18T08:29:45.993Z,16.03
2022-11-18T08:32:47.797Z,16.00
2022-11-18T08:35:49.432Z,17.25
2022-11-18T08:38:51.104Z,15.40
2022-11-18T08:41:52.744Z,13.53
2022-11-18T08:44:54.355Z,14.27
2022-11-18T08:47:56.252Z,14.18
2022-11-18T08:50:58.417Z,13.90
2022-11-18T08:54:00.412Z,14.07
2022-11-18T08:57:02.032Z,11.77
2022-11-18T09:00:05.151Z,11.35
2022-11-18T09:03:06.777Z,12.48
2022-11-18T09:06:12.842Z,12.15
2022-11-18T09:09:14.548Z,10.23
2022-11-18T09:12:17.721Z,9.43
2022-11-18T09:15:19.883Z,9.15
2022-11-18T09:18:21.737Z,10.52
2022-11-18T09:21:23.629Z,11.18
2022-11-18T09:24:25.284Z,9.70
2022-11-18T09:27:26.998Z,10.63
2022-11-18T09:30:28.782Z,11.60
2022-11-18T09:33:30.741Z,10.30
2022-11-18T09:36:32.528Z,11.77
2022-11-18T09:39:35.966Z,12.52
2022-11-18T09:42:49.611Z,12.85
2022-11-18T09:45:54.929Z,11.93
2022-11-18T09:49:14.164Z,16.38
2022-11-18T09:52:35.902Z,11.27
2022-11-18T09:55:38.792Z,13.38
2022-11-18T09:58:40.584Z,16.15
2022-11-18T10:01:42.735Z,14.95
2022-11-18T10:04:44.396Z,15.70
2022-11-18T10:07:58.015Z,16.50
2022-11-18T10:11:21.650Z,17.77
2022-11-18T10:14:38.811Z,17.20
2022-11-18T10:17:56.111Z,21.60
2022-11-18T10:21:01.922Z,20.47
2022-11-18T10:24:10.410Z,21.20
2022-11-18T10:27:13.834Z,23.92
2022-11-18T10:30:19.668Z,20.17
2022-11-18T10:33:28.380Z,21.52
2022-11-18T10:36:32.587Z,21.57
2022-11-18T10:39:34.377Z,19.95
2022-11-18T10:42:41.461Z,20.63
2022-11-18T10:45:43.650Z,23.30
2022-11-18T10:48:45.342Z,21.13
2022-11-18T10:51:48.876Z,20.13
2022-11-18T10:55:08.458Z,23.65
2022-11-18T10:58:13.343Z,22.20
2022-11-18T11:01:24.722Z,19.90
2022-11-18T11:04:27.536Z,21.60
2022-11-18T11:07:33.033Z,23.07
2022-11-18T11:10:34.798Z,21.52
2022-11-18T11:13:36.510Z,20.92
2022-11-18T11:16:48.861Z,19.63
2022-11-18T11:20:19.853Z,17.97
2022-11-18T11:23:23.994Z,19.02
2022-11-18T11:30:11.977Z,18.58
2022-11-18T11:33:13.985Z,19.20
2022-11-18T11:36:43.538Z,17.87
2022-11-18T11:40:29.522Z,18.48
2022-11-18T11:43:46.520Z,16.02
2022-11-18T11:47:24.704Z,14.60
2022-11-18T11:51:01.600Z,14.20
2022-11-18T11:54:24.543Z,12.63
2022-11-18T11:58:05.100Z,11.63
2022-11-18T12:01:34.659Z,13.07
2022-11-18T12:04:46.795Z,13.05
2022-11-18T12:07:56.771Z,12.13
2022-11-18T12:11:37.799Z,11.60
2022-11-18T12:14:48.041Z,13.70
2022-11-18T12:18:13.501Z,14.13
2022-11-18T12:21:46.251Z,14.02
2022-11-18T12:24:47.871Z,12.48
2022-11-18T12:27:49.620Z,12.90
2022-11-18T12:30:51.271Z,11.15
2022-11-18T12:34:06.868Z,10.32
2022-11-18T12:37:23.638Z,12.00
2022-11-18T12:40:41.905Z,11.85
2022-11-18T12:43:51.116Z,11.73
2022-11-18T12:46:59.664Z,13.88
2022-11-18T12:50:11.546Z,10.95
2022-11-18T12:53:13.240Z,10.73
2022-11-18T12:56:17.998Z,11.18
2022-11-18T12:59:34.168Z,13.57
2022-11-18T13:02:35.783Z,11.50
2022-11-18T13:05:38.738Z,10.50
2022-11-18T13:08:40.560Z,11.80
2022-11-18T13:12:02.420Z,13.27
2022-11-18T13:15:28.493Z,10.77
2022-11-18T13:18:30.081Z,11.05
2022-11-18T13:21:50.557Z,11.20
2022-11-18T13:24:52.500Z,9.52
2022-11-18T13:28:06.762Z,9.20
2022-11-18T13:31:18.156Z,8.37
2022-11-18T13:34:27.524Z,8.45
2022-11-18T13:37:30.446Z,9.73
2022-11-18T13:40:39.044Z,9.20
2022-11-18T13:43:40.639Z,9.10
2022-11-18T13:46:43.416Z,9.67
2022-11-18T13:50:13.379Z,7.95
2022-11-18T13:53:26.504Z,8.18
2022-11-18T13:56:34.430Z,7.72
2022-11-18T13:59:36.645Z,7.78
2022-11-18T14:02:46.448Z,7.50
2022-11-18T14:05:56.143Z,7.88
2022-11-18T14:09:09.646Z,9.73
2022-11-18T14:12:13.943Z,9.10
2022-11-18T14:15:44.044Z,11.75
2022-11-18T14:18:46.780Z,9.57
2022-11-18T14:21:48.390Z,8.00
2022-11-18T14:25:16.193Z,10.23
2022-11-18T14:28:18.170Z,10.70
2022-11-18T14:31:19.766Z,11.35
2022-11-18T14:34:25.770Z,8.23
2022-11-18T14:37:27.360Z,9.27
2022-11-18T14:40:28.936Z,8.07
2022-11-18T14:43:31.148Z,12.02
2022-11-18T14:46:32.840Z,8.97
2022-11-18T14:49:34.432Z,8.90
2022-11-18T14:52:36.030Z,8.73
2022-11-18T14:55:37.718Z,11.23
2022-11-18T14:58:39.342Z,12.68
2022-11-18T15:01:41.315Z,10.87
2022-11-18T15:04:43.099Z,12.73
2022-11-18T15:07:45.437Z,12.05
2022-11-18T15:10:47.089Z,12.13
2022-11-18T15:13:49.023Z,12.00
2022-11-18T15:16:50.662Z,10.70
2022-11-18T15:19:52.265Z,14.13
2022-11-18T15:22:53.921Z,12.38
2022-11-18T15:25:55.502Z,12.20
2022-11-18T15:28:57.537Z,10.90
2022-11-18T15:32:00.191Z,9.73
2022-11-18T15:35:05.646Z,9.77
2022-11-18T15:38:07.322Z,8.90
2022-11-18T15:41:22.341Z,10.20
2022-11-18T15:44:24.952Z,11.10
2022-11-18T15:47:26.786Z,10.38
2022-11-18T15:50:28.393Z,10.70
2022-11-18T15:53:29.986Z,12.38
2022-11-18T15:56:32.876Z,12.60
2022-11-18T15:59:34.554Z,10.18
2022-11-18T16:02:36.232Z,13.80
2022-11-18T16:05:37.852Z,10.00
2022-11-18T16:08:39.568Z,18.00
2022-11-18T16:11:59.638Z,12.00
2022-11-18T16:15:20.076Z,11.60
2022-11-18T16:18:21.732Z,11.70
2022-11-18T16:21:23.618Z,9.60
2022-11-18T16:24:27.001Z,9.50
2022-11-18T16:27:31.821Z,10.45
2022-11-18T16:30:52.199Z,10.20
2022-11-18T16:33:53.912Z,11.23
2022-11-18T16:36:57.310Z,10.87
2022-11-18T16:39:58.981Z,11.07
2022-11-18T16:43:00.641Z,9.93
2022-11-18T16:46:02.247Z,9.77
2022-11-18T16:49:04.303Z,11.60
2022-11-18T16:52:05.990Z,11.73
2022-11-18T16:55:08.020Z,12.10
2022-11-18T16:58:09.630Z,13.40
2022-11-18T17:01:23.321Z,12.98
2022-11-18T17:04:28.691Z,13.23
2022-11-18T17:07:35.444Z,13.43
2022-11-18T17:10:39.844Z,15.43
2022-11-18T17:13:45.100Z,14.75
2022-11-18T17:16:46.751Z,15.50
2022-11-18T17:19:48.398Z,15.77
2022-11-18T17:22:52.504Z,15.70
2022-11-18T17:25:54.380Z,17.73
2022-11-18T17:28:56.161Z,16.45
2022-11-18T17:31:57.833Z,15.65
2022-11-18T17:34:59.456Z,17.08
2022-11-18T17:38:01.851Z,15.80
2022-11-18T17:41:03.661Z,15.45
2022-11-18T17:44:06.359Z,14.38
2022-11-18T17:47:08.004Z,13.75
2022-11-18T17:50:09.864Z,14.35
2022-11-18T17:53:11.555Z,12.97
2022-11-18T17:56:13.151Z,13.27
2022-11-18T17:59:17.940Z,14.68
2022-11-18T18:02:21.534Z,15.68
2022-11-18T18:05:23.162Z,16.08
2022-11-18T18:08:24.744Z,13.37
2022-11-18T18:11:26.507Z,12.63
2022-11-18T18:14:28.160Z,13.05
2022-11-18T18:17:29.836Z,12.15
2022-11-18T18:20:31.521Z,15.67
2022-11-18T18:23:34.671Z,13.48
2022-11-18T18:26:36.604Z,16.17
2022-11-18T18:29:38.296Z,15.32
2022-11-18T18:32:39.918Z,15.23
2022-11-18T18:35:41.679Z,13.80
2022-11-18T18:38:43.919Z,12.35
2022-11-18T18:41:45.609Z,14.27
2022-11-18T18:45:05.724Z,11.68
2022-11-18T18:48:07.361Z,10.90
2022-11-18T18:51:09.153Z,13.03
2022-11-18T18:54:12.353Z,10.75
2022-11-18T18:57:13.984Z,12.52
2022-11-18T19:00:15.928Z,14.30
2022-11-18T19:03:17.558Z,18.30
2022-11-18T19:09:42.156Z,20.70
2022-11-18T19:12:43.778Z,23.25
2022-11-18T19:15:45.489Z,26.73
2022-11-18T19:18:47.221Z,28.47
2022-11-18T19:21:50.048Z,29.50
2022-11-18T19:24:52.149Z,33.65
2022-11-18T19:27:54.129Z,31.20
2022-11-18T19:30:55.738Z,29.70
2022-11-18T19:33:57.374Z,32.77
2022-11-18T19:36:59.104Z,29.70
2022-11-18T19:40:08.831Z,29.48
2022-11-18T19:43:12.276Z,32.78
2022-11-18T19:46:13.918Z,30.97
2022-11-18T19:49:15.617Z,33.93
2022-11-18T19:52:17.289Z,34.53
2022-11-18T19:55:18.972Z,37.05
2022-11-18T19:58:20.579Z,33.15
2022-11-18T20:01:23.943Z,37.80
2022-11-18T20:04:25.693Z,38.13
2022-11-18T20:07:27.362Z,37.88
2022-11-18T20:10:29.085Z,35.85
2022-11-18T20:13:32.079Z,34.67
2022-11-18T20:16:33.799Z,33.17
2022-11-18T20:19:35.564Z,34.33
2022-11-18T20:22:37.234Z,33.63
2022-11-18T20:25:38.845Z,34.03
2022-11-18T20:28:41.350Z,32.33
2022-11-18T20:31:43.012Z,31.48
2022-11-18T20:34:44.581Z,25.10
2022-11-18T20:37:46.188Z,24.80
2022-11-18T20:40:47.779Z,24.77
2022-11-18T20:43:49.541Z,22.67
2022-11-18T20:46:51.124Z,25.52
2022-11-18T20:49:52.814Z,24.27
2022-11-18T20:52:54.419Z,22.97
2022-11-18T20:55:56.021Z,20.25
2022-11-18T20:58:58.331Z,21.45
2022-11-18T21:02:00.016Z,22.35
2022-11-18T21:05:01.617Z,19.60
2022-11-18T21:08:03.214Z,19.05
2022-11-18T21:11:06.144Z,19.60
2022-11-18T21:14:23.300Z,19.02
2022-11-18T21:17:26.253Z,19.73
2022-11-18T21:20:46.551Z,18.02
2022-11-18T21:23:48.186Z,18.80
2022-11-18T21:26:51.371Z,20.25
2022-11-18T21:29:52.981Z,18.13
2022-11-18T21:32:54.606Z,17.92
2022-11-18T21:35:58.619Z,18.30
2022-11-18T21:39:00.488Z,19.25
2022-11-18T21:42:02.145Z,18.67
2022-11-18T21:45:03.972Z,17.93
2022-11-18T21:48:05.788Z,13.75
2022-11-18T21:51:12.294Z,16.48
2022-11-18T21:54:15.988Z,15.38
2022-11-18T21:57:17.799Z,14.03
2022-11-18T22:00:19.521Z,13.52
2022-11-18T22:03:21.136Z,14.63
2022-11-18T22:06:24.475Z,14.23
2022-11-18T22:09:27.451Z,12.52
2022-11-18T22:12:31.844Z,14.52
2022-11-18T22:15:33.515Z,13.60
2022-11-18T22:18:37.256Z,14.13
2022-11-18T22:21:38.883Z,12.13
2022-11-18T22:24:40.712Z,11.30
2022-11-18T22:27:42.303Z,13.40
2022-11-18T22:30:43.892Z,12.05
2022-11-18T22:33:45.629Z,11.87
2022-11-18T22:36:47.252Z,12.73
2022-11-18T22:39:48.940Z,13.60
2022-11-18T22:42:50.690Z,12.68
2022-11-18T22:46:06.610Z,16.35
2022-11-18T22:49:08.517Z,13.07
2022-11-18T22:52:10.118Z,11.65
2022-11-18T22:55:11.735Z,11.75
2022-11-18T22:58:13.350Z,10.23
2022-11-18T23:01:17.145Z,11.43
2022-11-18T23:04:18.924Z,12.32
2022-11-18T23:07:20.584Z,14.40
2022-11-18T23:10:22.241Z,15.23
2022-11-18T23:13:42.155Z,14.82
2022-11-18T23:16:43.952Z,12.43
2022-11-18T23:19:47.016Z,14.23
2022-11-18T23:22:48.723Z,15.30
2022-11-18T23:25:50.306Z,13.90
2022-11-18T23:28:51.920Z,14.90
2022-11-18T23:31:54.019Z,15.40
2022-11-18T23:34:55.732Z,14.07
2022-11-18T23:37:57.320Z,15.73
2022-11-18T23:41:06.767Z,16.02
2022-11-18T23:44:08.387Z,16.42
2022-11-18T23:47:10.097Z,17.40
2022-11-18T23:50:11.744Z,16.70
2022-11-18T23:53:13.396Z,16.42
2022-11-18T23:56:16.013Z,17.60
2022-11-18T23:59:18.038Z,16.13
